createdAt,value
2024-05-09T00:01:44.581Z,29.85
2024-05-09T00:04:12.846Z,25.85
2024-05-09T00:06:37.867Z,27.58
2024-05-09T00:09:02.814Z,28.42
2024-05-09T00:11:27.824Z,30.75
2024-05-09T00:13:53.734Z,32.05
2024-05-09T00:16:18.681Z,30.23
2024-05-09T00:18:43.647Z,31.23
2024-05-09T00:21:12.830Z,25.83
2024-05-09T00:23:38.286Z,28.58
2024-05-09T00:26:03.351Z,29.00
2024-05-09T00:28:28.373Z,34.10
2024-05-09T00:30:53.287Z,30.10
2024-05-09T00:33:18.487Z,31.58
2024-05-09T00:35:44.030Z,30.85
2024-05-09T00:38:12.368Z,36.20
2024-05-09T00:40:41.728Z,42.90
2024-05-09T00:43:08.381Z,39.70
2024-05-09T00:45:34.140Z,38.95
2024-05-09T00:47:59.622Z,40.22
2024-05-09T00:50:33.789Z,36.60
2024-05-09T00:53:01.909Z,37.15
2024-05-09T00:55:30.573Z,35.97
2024-05-09T00:57:55.878Z,37.85
2024-05-09T01:00:27.311Z,33.50
2024-05-09T01:03:01.104Z,40.22
2024-05-09T01:05:26.201Z,35.75
2024-05-09T01:07:51.220Z,42.92
2024-05-09T01:10:21.237Z,41.00
2024-05-09T01:12:55.542Z,41.17
2024-05-09T01:15:20.473Z,44.35
2024-05-09T01:17:46.128Z,44.25
2024-05-09T01:20:19.848Z,39.63
2024-05-09T01:22:48.661Z,38.53
2024-05-09T01:25:16.524Z,35.35
2024-05-09T01:27:41.411Z,35.95
2024-05-09T01:30:09.576Z,35.38
2024-05-09T01:32:39.717Z,38.10
2024-05-09T01:35:04.908Z,33.75
2024-05-09T01:37:29.859Z,29.73
2024-05-09T01:39:54.886Z,38.28
2024-05-09T01:42:22.501Z,37.67
2024-05-09T01:44:47.529Z,41.88
2024-05-09T01:47:13.120Z,41.08
2024-05-09T01:49:40.221Z,32.13
2024-05-09T01:52:05.429Z,35.60
2024-05-09T01:54:30.648Z,39.17
2024-05-09T01:56:56.034Z,43.25
2024-05-09T01:59:23.593Z,36.80
2024-05-09T02:01:56.660Z,52.28
2024-05-09T02:04:22.982Z,47.13
2024-05-09T02:06:47.985Z,49.20
2024-05-09T02:09:13.162Z,50.20
2024-05-09T02:11:45.846Z,47.70
2024-05-09T02:14:11.172Z,46.50
2024-05-09T02:16:38.927Z,51.58
2024-05-09T02:19:04.327Z,49.05
2024-05-09T02:21:34.107Z,47.45
2024-05-09T02:23:59.038Z,48.90
2024-05-09T02:26:23.985Z,44.53
2024-05-09T02:28:49.380Z,47.92
2024-05-09T02:31:15.304Z,44.13
2024-05-09T02:33:40.843Z,57.35
2024-05-09T02:36:07.072Z,44.30
2024-05-09T02:38:30.021Z,42.13
2024-05-09T02:40:55.559Z,41.78
2024-05-09T02:43:17.997Z,46.45
2024-05-09T02:45:43.177Z,37.95
2024-05-09T02:48:07.482Z,39.60
2024-05-09T02:50:39.130Z,40.75
2024-05-09T02:53:02.585Z,44.40
2024-05-09T02:55:27.553Z,40.45
2024-05-09T02:57:49.946Z,38.88
2024-05-09T03:00:22.542Z,41.80
2024-05-09T03:02:48.772Z,36.92
2024-05-09T03:05:14.482Z,39.05
2024-05-09T03:07:39.467Z,40.05
2024-05-09T03:10:07.393Z,45.85
2024-05-09T03:12:35.814Z,42.10
2024-05-09T03:15:02.110Z,41.70
2024-05-09T03:17:24.768Z,45.05
2024-05-09T03:19:50.515Z,38.13
2024-05-09T03:22:12.882Z,41.83
2024-05-09T03:24:40.640Z,42.00
2024-05-09T03:27:02.972Z,37.78
2024-05-09T03:29:28.059Z,40.38
2024-05-09T03:31:50.550Z,42.90
2024-05-09T03:34:15.568Z,53.92
2024-05-09T03:36:43.756Z,44.05
2024-05-09T03:39:08.688Z,50.92
2024-05-09T03:41:36.448Z,45.88
2024-05-09T03:44:01.483Z,45.22
2024-05-09T03:46:23.865Z,45.33
2024-05-09T03:48:48.942Z,53.25
2024-05-09T03:51:12.561Z,55.17
2024-05-09T03:53:37.611Z,51.08
2024-05-09T03:56:00.150Z,50.15
2024-05-09T03:58:27.857Z,49.55
2024-05-09T04:00:50.372Z,47.47
2024-05-09T04:03:15.802Z,43.33
2024-05-09T04:05:39.833Z,45.03
2024-05-09T04:08:05.433Z,44.17
2024-05-09T04:10:32.889Z,49.10
2024-05-09T04:12:59.530Z,46.85
2024-05-09T04:15:24.810Z,44.28
2024-05-09T04:17:51.604Z,46.78
2024-05-09T04:20:24.597Z,45.03
2024-05-09T04:22:58.847Z,41.58
2024-05-09T04:25:21.703Z,54.67
2024-05-09T04:27:46.629Z,59.20
2024-05-09T04:30:18.430Z,63.38
2024-05-09T04:32:49.479Z,51.55
2024-05-09T04:35:12.053Z,52.83
2024-05-09T04:37:37.543Z,48.00
2024-05-09T04:40:00.757Z,58.50
2024-05-09T04:42:26.244Z,57.60
2024-05-09T04:44:49.628Z,48.97
2024-05-09T04:47:15.005Z,54.72
2024-05-09T04:49:42.416Z,46.28
2024-05-09T04:52:08.886Z,49.00
2024-05-09T04:54:36.236Z,47.45
2024-05-09T04:57:02.010Z,49.10
2024-05-09T04:59:24.667Z,47.55
2024-05-09T05:01:51.887Z,47.03
2024-05-09T05:04:14.416Z,50.45
2024-05-09T05:06:42.192Z,50.67
2024-05-09T05:09:04.676Z,52.80
2024-05-09T05:11:30.314Z,45.85
2024-05-09T05:13:52.864Z,43.88
2024-05-09T05:16:19.585Z,48.55
2024-05-09T05:18:44.474Z,51.75
2024-05-09T05:21:09.916Z,50.33
2024-05-09T05:23:35.547Z,60.22
2024-05-09T05:26:01.630Z,65.30
2024-05-09T05:28:24.177Z,57.78
2024-05-09T05:30:50.073Z,51.53
2024-05-09T05:33:15.021Z,54.45
2024-05-09T05:35:40.715Z,55.22
2024-05-09T05:38:03.411Z,53.85
2024-05-09T05:40:36.440Z,53.30
2024-05-09T05:43:00.619Z,53.40
2024-05-09T05:45:26.676Z,55.05
2024-05-09T05:47:49.258Z,54.25
2024-05-09T05:50:23.818Z,56.28
2024-05-09T05:52:50.169Z,51.28
2024-05-09T05:55:15.302Z,57.28
2024-05-09T05:57:41.794Z,54.45
2024-05-09T06:00:09.765Z,50.95
2024-05-09T06:02:36.178Z,54.38
2024-05-09T06:05:01.482Z,50.67
2024-05-09T06:07:23.905Z,51.20
2024-05-09T06:09:50.427Z,54.83
2024-05-09T06:12:13.294Z,54.70
2024-05-09T06:14:41.517Z,53.72
2024-05-09T06:17:04.390Z,50.58
2024-05-09T06:19:29.442Z,47.15
2024-05-09T06:21:52.946Z,51.60
2024-05-09T06:24:17.910Z,50.13
2024-05-09T06:26:42.068Z,49.17
2024-05-09T06:29:08.051Z,46.17
2024-05-09T06:31:33.055Z,50.85
2024-05-09T06:33:58.308Z,52.50
2024-05-09T06:36:20.766Z,47.00
2024-05-09T06:38:45.802Z,48.70
2024-05-09T06:41:08.337Z,48.60
2024-05-09T06:43:33.562Z,51.05
2024-05-09T06:45:57.892Z,45.92
2024-05-09T06:48:25.592Z,48.72
2024-05-09T06:50:48.527Z,45.65
2024-05-09T06:53:17.805Z,47.60
2024-05-09T06:55:40.538Z,40.65
2024-05-09T06:58:09.013Z,43.70
2024-05-09T07:00:38.546Z,47.83
2024-05-09T07:03:11.443Z,45.63
2024-05-09T07:05:37.673Z,42.03
2024-05-09T07:08:03.438Z,44.30
2024-05-09T07:10:32.751Z,41.67
2024-05-09T07:13:00.375Z,46.55
2024-05-09T07:15:22.715Z,47.25
2024-05-09T07:17:48.731Z,45.60
2024-05-09T07:20:16.580Z,44.58
2024-05-09T07:22:51.020Z,43.15
2024-05-09T07:25:13.555Z,41.15
2024-05-09T07:27:38.534Z,43.80
2024-05-09T07:30:01.398Z,44.30
2024-05-09T07:32:26.562Z,41.47
2024-05-09T07:34:49.013Z,40.97
2024-05-09T07:37:16.153Z,43.75
2024-05-09T07:39:42.671Z,45.45
2024-05-09T07:42:08.147Z,41.97
2024-05-09T07:44:31.002Z,41.13
2024-05-09T07:48:14.009Z,41.03
2024-05-09T07:54:33.184Z,39.53
2024-05-09T07:57:00.997Z,43.58
2024-05-09T07:59:23.417Z,36.72
2024-05-09T08:01:48.482Z,39.05
2024-05-09T08:04:11.116Z,38.88
2024-05-09T08:06:36.317Z,34.92
2024-05-09T08:09:02.781Z,41.33
2024-05-09T08:11:30.836Z,43.55
2024-05-09T08:13:55.799Z,39.72
2024-05-09T08:16:21.003Z,41.22
2024-05-09T08:18:44.461Z,41.88
2024-05-09T08:21:10.446Z,41.63
2024-05-09T08:23:32.867Z,39.88
2024-05-09T08:25:57.895Z,47.90
2024-05-09T08:28:20.539Z,43.38
2024-05-09T08:30:49.511Z,39.17
2024-05-09T08:33:12.385Z,43.78
2024-05-09T08:35:37.648Z,42.08
2024-05-09T08:38:02.243Z,40.90
2024-05-09T08:40:33.687Z,40.13
2024-05-09T08:43:00.356Z,35.17
2024-05-09T08:45:25.756Z,40.65
2024-05-09T08:47:52.519Z,38.00
2024-05-09T08:50:29.119Z,34.97
2024-05-09T08:52:58.702Z,35.95
2024-05-09T08:55:25.512Z,38.40
2024-05-09T08:57:51.279Z,38.40
2024-05-09T09:00:21.419Z,39.13
2024-05-09T09:02:54.995Z,33.33
2024-05-09T09:05:17.982Z,33.40
2024-05-09T09:07:45.468Z,40.83
2024-05-09T09:10:08.835Z,35.30
2024-05-09T09:12:33.846Z,35.35
2024-05-09T09:14:56.470Z,28.42
2024-05-09T09:17:22.829Z,33.30
2024-05-09T09:19:47.988Z,33.83
2024-05-09T09:22:14.184Z,34.28
2024-05-09T09:24:37.523Z,31.73
2024-05-09T09:27:02.754Z,30.25
2024-05-09T09:29:25.534Z,35.92
2024-05-09T09:32:01.210Z,32.75
2024-05-09T09:34:28.064Z,30.50
2024-05-09T09:37:01.255Z,32.45
2024-05-09T09:39:28.022Z,29.80
2024-05-09T09:41:54.577Z,31.48
2024-05-09T09:44:19.485Z,26.60
2024-05-09T09:46:44.903Z,31.50
2024-05-09T09:49:08.858Z,28.38
2024-05-09T09:51:35.845Z,24.67
2024-05-09T09:54:03.257Z,27.58
2024-05-09T09:56:30.518Z,27.65
2024-05-09T09:58:54.773Z,27.70
2024-05-09T10:01:19.990Z,29.70
2024-05-09T10:03:42.845Z,26.58
2024-05-09T10:06:09.578Z,22.20
2024-05-09T10:08:32.161Z,25.85
2024-05-09T10:10:59.974Z,28.38
2024-05-09T10:13:33.324Z,30.50
2024-05-09T10:15:59.258Z,25.63
2024-05-09T10:18:27.855Z,25.13
2024-05-09T10:20:54.577Z,26.55
2024-05-09T10:23:25.468Z,25.65
2024-05-09T10:26:01.253Z,32.35
2024-05-09T10:28:26.919Z,26.23
2024-05-09T10:31:05.042Z,24.25
2024-05-09T10:33:40.035Z,27.63
2024-05-09T10:36:07.682Z,29.48
2024-05-09T10:38:31.182Z,21.60
2024-05-09T10:41:01.742Z,24.60
2024-05-09T10:43:25.829Z,22.13
2024-05-09T10:45:51.071Z,22.50
2024-05-09T10:48:13.580Z,23.35
2024-05-09T10:50:43.655Z,27.05
2024-05-09T10:53:06.084Z,22.33
2024-05-09T10:55:31.057Z,22.52
2024-05-09T10:57:56.982Z,21.40
2024-05-09T11:00:27.816Z,22.85
2024-05-09T11:02:56.460Z,20.10
2024-05-09T11:05:22.978Z,16.75
2024-05-09T11:07:45.609Z,15.82
2024-05-09T11:10:14.546Z,19.20
2024-05-09T11:12:37.247Z,16.73
2024-05-09T11:15:05.770Z,21.85
2024-05-09T11:17:28.245Z,20.25
2024-05-09T11:19:53.626Z,20.30
2024-05-09T11:22:16.177Z,19.42
2024-05-09T11:24:41.457Z,20.50
2024-05-09T11:27:06.729Z,23.77
2024-05-09T11:29:41.431Z,18.42
2024-05-09T11:32:07.590Z,19.35
2024-05-09T11:34:32.700Z,18.00
2024-05-09T11:36:55.420Z,21.23
2024-05-09T11:39:20.731Z,21.55
2024-05-09T11:41:43.137Z,24.30
2024-05-09T11:44:08.845Z,19.58
2024-05-09T11:46:31.697Z,21.15
2024-05-09T11:48:59.590Z,18.63
2024-05-09T11:51:22.278Z,18.35
2024-05-09T11:53:47.239Z,28.17
2024-05-09T11:56:11.844Z,22.58
2024-05-09T11:58:39.410Z,19.10
2024-05-09T12:01:02.233Z,19.40
2024-05-09T12:03:27.582Z,21.60
2024-05-09T12:05:56.349Z,22.05
2024-05-09T12:08:21.767Z,22.42
2024-05-09T12:10:44.209Z,22.85
2024-05-09T12:13:10.453Z,21.60
2024-05-09T12:15:33.885Z,21.65
2024-05-09T12:18:01.694Z,25.25
2024-05-09T12:20:34.790Z,22.38
2024-05-09T12:23:05.475Z,23.58
2024-05-09T12:25:29.175Z,22.17
2024-05-09T12:27:55.817Z,22.27
2024-05-09T12:30:28.833Z,23.73
2024-05-09T12:33:01.228Z,22.05
2024-05-09T12:35:25.737Z,22.10
2024-05-09T12:37:51.281Z,23.23
2024-05-09T12:40:23.168Z,22.05
2024-05-09T12:42:56.518Z,20.65
2024-05-09T12:45:18.779Z,19.27
2024-05-09T12:47:43.895Z,19.40
2024-05-09T12:50:13.444Z,19.33
2024-05-09T12:52:43.663Z,19.02
2024-05-09T12:55:07.257Z,20.05
2024-05-09T12:57:35.100Z,19.88
2024-05-09T12:59:57.455Z,20.42
2024-05-09T13:02:22.958Z,20.80
2024-05-09T13:04:45.644Z,20.98
2024-05-09T13:07:11.841Z,20.65
2024-05-09T13:09:34.535Z,21.48
2024-05-09T13:11:59.769Z,19.17
2024-05-09T13:14:26.233Z,21.23
2024-05-09T13:16:51.754Z,19.77
2024-05-09T13:19:14.323Z,19.33
2024-05-09T13:21:39.363Z,18.27
2024-05-09T13:24:01.755Z,19.40
2024-05-09T13:26:26.793Z,19.80
2024-05-09T13:28:49.144Z,21.05
2024-05-09T13:31:16.877Z,18.85
2024-05-09T13:33:39.411Z,20.80
2024-05-09T13:36:04.876Z,18.80
2024-05-09T13:38:27.997Z,20.23
2024-05-09T13:40:53.089Z,19.58
2024-05-09T13:43:17.631Z,18.85
2024-05-09T13:45:43.232Z,18.95
2024-05-09T13:48:10.359Z,18.42
2024-05-09T13:50:36.974Z,17.08
2024-05-09T13:52:59.664Z,17.50
2024-05-09T13:55:24.858Z,15.02
2024-05-09T13:57:47.340Z,16.35
2024-05-09T14:00:27.095Z,20.50
2024-05-09T14:02:56.058Z,19.88
2024-05-09T14:05:23.981Z,19.65
2024-05-09T14:07:47.135Z,21.23
2024-05-09T14:10:19.928Z,16.35
2024-05-09T14:12:48.245Z,18.75
2024-05-09T14:15:13.254Z,17.05
2024-05-09T14:17:35.793Z,15.75
2024-05-09T14:20:00.838Z,17.90
2024-05-09T14:22:26.888Z,18.08
2024-05-09T14:24:51.893Z,19.98
2024-05-09T14:27:14.810Z,17.13
2024-05-09T14:29:40.369Z,15.65
2024-05-09T14:32:03.724Z,16.80
2024-05-09T14:34:28.988Z,14.80
2024-05-09T14:36:51.718Z,14.98
2024-05-09T14:39:19.314Z,14.15
2024-05-09T14:41:41.739Z,16.05
2024-05-09T14:44:07.487Z,15.63
2024-05-09T14:46:29.848Z,15.68
2024-05-09T14:48:55.316Z,13.98
2024-05-09T14:51:17.802Z,15.88
2024-05-09T14:53:43.932Z,14.35
2024-05-09T14:56:09.828Z,14.18
2024-05-09T14:58:35.919Z,15.27
2024-05-09T15:00:58.428Z,14.60
2024-05-09T15:03:23.823Z,12.65
2024-05-09T15:05:47.184Z,11.05
2024-05-09T15:08:12.414Z,13.68
2024-05-09T15:10:37.095Z,12.75
2024-05-09T15:13:07.134Z,12.20
2024-05-09T15:15:31.516Z,15.07
2024-05-09T15:17:58.309Z,13.60
2024-05-09T15:20:27.904Z,12.30
2024-05-09T15:22:59.671Z,14.50
2024-05-09T15:25:22.230Z,13.90
2024-05-09T15:27:47.487Z,12.95
2024-05-09T15:30:13.285Z,11.68
2024-05-09T15:32:40.627Z,11.70
2024-05-09T15:35:03.068Z,12.10
2024-05-09T15:37:28.085Z,12.13
2024-05-09T15:39:50.709Z,11.50
2024-05-09T15:42:15.756Z,10.57
2024-05-09T15:44:38.177Z,9.82
2024-05-09T15:47:06.040Z,11.20
2024-05-09T15:49:31.819Z,10.70
2024-05-09T15:51:54.458Z,10.32
2024-05-09T15:54:21.553Z,13.00
2024-05-09T15:56:48.844Z,11.52
2024-05-09T15:59:14.767Z,13.82
2024-05-09T16:01:37.195Z,9.05
2024-05-09T16:04:05.397Z,14.25
2024-05-09T16:06:28.082Z,11.73
2024-05-09T16:08:53.058Z,10.82
2024-05-09T16:11:17.701Z,12.68
2024-05-09T16:13:42.669Z,11.73
2024-05-09T16:16:06.087Z,12.05
2024-05-09T16:18:31.069Z,11.13
2024-05-09T16:21:00.453Z,13.23
2024-05-09T16:23:25.543Z,14.73
2024-05-09T16:25:48.566Z,10.07
2024-05-09T16:28:14.447Z,10.50
2024-05-09T16:30:37.113Z,10.27
2024-05-09T16:33:02.434Z,11.45
2024-05-09T16:35:25.069Z,10.68
2024-05-09T16:37:52.710Z,10.23
2024-05-09T16:40:24.441Z,13.32
2024-05-09T16:42:55.175Z,11.02
2024-05-09T16:45:17.508Z,12.02
2024-05-09T16:47:42.727Z,11.68
2024-05-09T16:50:08.620Z,11.45
2024-05-09T16:52:33.958Z,9.90
2024-05-09T16:54:59.011Z,11.10
2024-05-09T16:57:24.058Z,9.75
2024-05-09T16:59:46.448Z,10.90
2024-05-09T17:02:11.988Z,8.18
2024-05-09T17:04:34.749Z,9.25
2024-05-09T17:06:59.972Z,8.93
2024-05-09T17:09:22.970Z,11.48
2024-05-09T17:11:50.601Z,11.20
2024-05-09T17:14:17.152Z,10.60
2024-05-09T17:16:42.456Z,11.55
2024-05-09T17:19:05.189Z,11.10
2024-05-09T17:21:30.241Z,13.07
2024-05-09T17:23:54.397Z,8.95
2024-05-09T17:26:20.192Z,14.18
2024-05-09T17:28:45.213Z,9.85
2024-05-09T17:31:10.499Z,12.40
2024-05-09T17:33:33.068Z,10.05
2024-05-09T17:35:58.535Z,12.15
2024-05-09T17:38:23.295Z,13.63
2024-05-09T17:40:48.998Z,11.90
2024-05-09T17:43:11.574Z,17.02
2024-05-09T17:45:40.839Z,16.85
2024-05-09T17:48:04.906Z,16.08
2024-05-09T17:50:35.362Z,15.00
2024-05-09T17:53:00.001Z,15.13
2024-05-09T17:55:25.180Z,16.75
2024-05-09T17:57:47.747Z,18.33
2024-05-09T18:00:17.428Z,16.17
2024-05-09T18:02:46.146Z,15.15
2024-05-09T18:05:11.449Z,17.17
2024-05-09T18:07:33.885Z,18.85
2024-05-09T18:09:59.852Z,17.40
2024-05-09T18:12:22.214Z,16.80
2024-05-09T18:14:47.176Z,15.63
2024-05-09T18:17:10.606Z,17.35
2024-05-09T18:19:39.337Z,17.13
2024-05-09T18:22:01.820Z,22.48
2024-05-09T18:24:27.168Z,17.92
2024-05-09T18:26:50.698Z,17.80
2024-05-09T18:29:19.974Z,16.52
2024-05-09T18:31:46.607Z,15.10
2024-05-09T18:34:09.200Z,20.25
2024-05-09T18:36:37.003Z,18.20
2024-05-09T18:38:59.694Z,18.50
2024-05-09T18:41:24.746Z,14.00
2024-05-09T18:43:50.384Z,18.30
2024-05-09T18:46:16.646Z,20.80
2024-05-09T18:48:39.197Z,19.33
2024-05-09T18:51:05.505Z,19.67
2024-05-09T18:53:30.584Z,19.75
2024-05-09T18:55:55.621Z,16.67
2024-05-09T18:58:18.246Z,18.13
2024-05-09T19:00:46.017Z,21.52
2024-05-09T19:03:13.069Z,15.85
2024-05-09T19:05:41.309Z,18.45
2024-05-09T19:08:04.642Z,16.35
2024-05-09T19:10:34.925Z,16.73
2024-05-09T19:12:58.446Z,21.88
2024-05-09T19:15:26.420Z,17.77
2024-05-09T19:17:50.814Z,17.00
2024-05-09T19:20:24.965Z,17.65
2024-05-09T19:22:51.334Z,20.02
2024-05-09T19:25:16.471Z,20.42
2024-05-09T19:27:42.358Z,20.83
2024-05-09T19:30:17.619Z,20.67
2024-05-09T19:32:47.930Z,20.30
2024-05-09T19:35:12.947Z,17.67
2024-05-09T19:37:35.316Z,18.02
2024-05-09T19:40:01.204Z,21.13
2024-05-09T19:42:24.253Z,19.17
2024-05-09T19:44:52.087Z,19.70
2024-05-09T19:47:14.583Z,19.90
2024-05-09T19:49:40.568Z,18.17
2024-05-09T19:52:03.578Z,15.73
2024-05-09T19:54:28.594Z,17.73
2024-05-09T19:56:51.157Z,19.00
2024-05-09T19:59:16.174Z,15.07
2024-05-09T20:01:41.313Z,14.75
2024-05-09T20:04:06.943Z,14.55
2024-05-09T20:06:30.744Z,17.08
2024-05-09T20:08:58.175Z,18.00
2024-05-09T20:11:21.139Z,15.70
2024-05-09T20:13:47.325Z,17.05
2024-05-09T20:16:09.752Z,17.42
2024-05-09T20:18:37.450Z,18.50
2024-05-09T20:21:00.116Z,18.23
2024-05-09T20:23:47.447Z,18.02
2024-05-09T20:26:09.887Z,18.63
2024-05-09T20:28:35.622Z,18.45
2024-05-09T20:30:58.211Z,17.15
2024-05-09T20:33:23.398Z,16.80
2024-05-09T20:35:48.379Z,19.23
2024-05-09T20:38:13.321Z,17.20
2024-05-09T20:40:38.490Z,22.75
2024-05-09T20:43:06.202Z,17.73
2024-05-09T20:45:29.050Z,18.92
2024-05-09T20:47:54.373Z,22.52
2024-05-09T20:50:27.418Z,19.10
2024-05-09T20:53:00.717Z,18.60
2024-05-09T20:55:23.146Z,20.05
2024-05-09T20:57:48.380Z,19.38
2024-05-09T21:00:18.631Z,19.73
2024-05-09T21:02:48.005Z,19.67
2024-05-09T21:05:10.852Z,21.90
2024-05-09T21:07:36.745Z,19.35
2024-05-09T21:10:01.812Z,19.67
2024-05-09T21:12:27.103Z,19.60
2024-05-09T21:14:49.492Z,21.40
2024-05-09T21:17:15.248Z,17.65
2024-05-09T21:19:37.616Z,20.17
2024-05-09T21:22:03.570Z,18.35
2024-05-09T21:24:25.922Z,19.50
2024-05-09T21:26:54.170Z,19.30
2024-05-09T21:29:16.502Z,19.02
2024-05-09T21:31:42.025Z,21.33
2024-05-09T21:34:05.207Z,23.48
2024-05-09T21:36:30.318Z,23.58
2024-05-09T21:38:52.656Z,22.45
2024-05-09T21:41:17.621Z,24.13
2024-05-09T21:43:43.449Z,25.23
2024-05-09T21:46:09.212Z,20.98
2024-05-09T21:48:33.495Z,21.15
2024-05-09T21:50:58.554Z,23.30
2024-05-09T21:53:20.937Z,21.60
2024-05-09T21:55:45.973Z,25.20
2024-05-09T21:58:08.455Z,21.23
2024-05-09T22:00:39.381Z,22.85
2024-05-09T22:03:02.409Z,23.67
2024-05-09T22:05:28.850Z,23.17
2024-05-09T22:07:51.490Z,24.98
2024-05-09T22:10:25.366Z,21.42
2024-05-09T22:12:49.463Z,20.63
2024-05-09T22:15:14.487Z,22.35
2024-05-09T22:17:42.293Z,21.13
2024-05-09T22:20:17.866Z,24.65
2024-05-09T22:22:45.372Z,25.10
2024-05-09T22:25:10.626Z,23.25
2024-05-09T22:27:33.738Z,23.80
2024-05-09T22:29:58.797Z,25.95
2024-05-09T22:32:21.251Z,20.40
2024-05-09T22:34:49.150Z,24.02
2024-05-09T22:37:11.725Z,19.90
2024-05-09T22:39:37.649Z,21.45
2024-05-09T22:42:00.046Z,24.40
2024-05-09T22:44:25.553Z,24.20
2024-05-09T22:46:47.865Z,25.02
2024-05-09T22:49:12.913Z,25.70
2024-05-09T22:51:38.350Z,23.65
2024-05-09T22:54:04.038Z,22.05
2024-05-09T22:56:31.444Z,22.63
2024-05-09T22:58:57.362Z,18.13
2024-05-09T23:01:47.291Z,20.80
2024-05-09T23:04:12.405Z,23.98
2024-05-09T23:06:40.371Z,19.90
2024-05-09T23:09:06.360Z,26.50
2024-05-09T23:11:29.837Z,22.30
2024-05-09T23:13:55.535Z,22.38
2024-05-09T23:16:17.947Z,22.58
2024-05-09T23:18:43.138Z,23.52
2024-05-09T23:21:06.435Z,22.67
2024-05-09T23:23:34.222Z,23.27
2024-05-09T23:25:57.368Z,24.10
2024-05-09T23:28:22.406Z,28.08
2024-05-09T23:30:44.933Z,23.33
2024-05-09T23:33:10.608Z,26.02
2024-05-09T23:35:34.044Z,26.02
2024-05-09T23:37:59.034Z,25.75
2024-05-09T23:40:30.136Z,26.60
2024-05-09T23:43:02.117Z,22.95
2024-05-09T23:45:24.566Z,23.08
2024-05-09T23:47:50.277Z,30.02
2024-05-09T23:50:17.062Z,31.42
2024-05-09T23:52:48.683Z,32.33
2024-05-09T23:55:11.084Z,29.70
2024-05-09T23:57:38.829Z,34.55
